Terminal Aerodrome Forecast
Issued by NWS

Current Version | Previous Version | Text Only | Print | Product List | Glossary On
Versions: 1 2 3 4 5 6 7 8 9 10 11 12 13 14 15 16
505
FTUS46 KEKA 031144
TAFCEC
TAF
KCEC 031144Z 0312/0412 08003KT 6SM BR OVC012
     FM031800 30008KT P6SM BKN015 OVC120
     FM032100 31008G15KT P6SM -DZ BKN015 OVC100
     FM040200 34004KT 5SM -DZ BR OVC015
     FM040700 16004KT 6SM BR OVC008=

USA.gov is the U.S. government's official web portal to all federal, state and local government web resources and services.